createdAt,value
2019-02-22T00:03:32.812Z,6.00
2019-02-22T00:07:45.634Z,5.80
2019-02-22T00:11:58.197Z,5.60
2019-02-22T00:16:10.495Z,5.60
2019-02-22T00:20:23.400Z,5.50
2019-02-22T00:24:35.856Z,5.50
2019-02-22T00:28:48.552Z,5.60
2019-02-22T00:33:01.545Z,5.70
2019-02-22T00:37:13.973Z,5.70
2019-02-22T00:41:27.356Z,5.80
2019-02-22T00:45:39.772Z,5.90
2019-02-22T00:49:52.561Z,6.00
2019-02-22T00:54:05.115Z,6.00
2019-02-22T00:58:17.521Z,6.00
2019-02-22T01:02:30.422Z,5.90
2019-02-22T01:06:42.935Z,5.90
2019-02-22T01:10:55.812Z,5.90
2019-02-22T01:15:08.523Z,5.90
2019-02-22T01:19:20.998Z,5.90
2019-02-22T01:23:33.826Z,5.90
2019-02-22T01:27:46.384Z,5.90
2019-02-22T01:32:00.105Z,5.90
2019-02-22T01:36:12.547Z,5.90
2019-02-22T01:40:26.240Z,5.90
2019-02-22T01:44:38.868Z,5.90
2019-02-22T01:48:51.255Z,5.90
2019-02-22T01:53:03.702Z,5.80
2019-02-22T01:57:16.429Z,5.90
2019-02-22T02:01:28.885Z,5.90
2019-02-22T02:05:41.191Z,6.00
2019-02-22T02:09:54.155Z,6.00
2019-02-22T02:14:06.744Z,6.00
2019-02-22T02:18:19.155Z,5.90
2019-02-22T02:22:31.477Z,5.90
2019-02-22T02:26:44.368Z,5.80
2019-02-22T02:30:56.929Z,5.80
2019-02-22T02:35:09.501Z,5.70
2019-02-22T02:39:22.276Z,5.70
2019-02-22T02:43:34.678Z,5.60
2019-02-22T02:47:46.983Z,5.50
2019-02-22T02:51:59.883Z,5.40
2019-02-22T02:56:12.442Z,5.30
2019-02-22T03:00:24.844Z,5.20
2019-02-22T03:04:37.254Z,5.20
2019-02-22T03:08:51.176Z,5.30
2019-02-22T03:13:03.819Z,5.30
2019-02-22T03:17:16.151Z,5.10
2019-02-22T03:21:29.039Z,4.90
2019-02-22T03:25:41.497Z,4.90
2019-02-22T03:29:54.114Z,4.90
2019-02-22T03:34:07.031Z,4.90
2019-02-22T03:38:19.565Z,5.00
2019-02-22T03:42:32.612Z,5.00
2019-02-22T03:46:45.115Z,4.90
2019-02-22T03:50:57.523Z,4.80
2019-02-22T03:55:09.864Z,4.60
2019-02-22T03:59:22.734Z,4.70
2019-02-22T04:03:35.363Z,4.70
2019-02-22T04:07:47.698Z,4.80
2019-02-22T04:12:00.670Z,4.80
2019-02-22T04:16:13.150Z,4.80
2019-02-22T04:20:25.553Z,4.80
2019-02-22T04:24:38.448Z,4.80
2019-02-22T04:28:55.129Z,4.80
2019-02-22T04:33:07.792Z,4.90
2019-02-22T04:37:20.839Z,4.90
2019-02-22T04:41:33.276Z,4.80
2019-02-22T04:45:45.763Z,4.80
2019-02-22T04:49:59.597Z,4.80
2019-02-22T04:54:12.273Z,4.80
2019-02-22T04:58:24.673Z,4.70
2019-02-22T05:02:37.666Z,4.80
2019-02-22T05:06:50.137Z,4.90
2019-02-22T05:11:03.108Z,4.80
2019-02-22T05:15:15.732Z,4.80
2019-02-22T05:19:27.990Z,4.70
2019-02-22T05:23:40.863Z,4.60
2019-02-22T05:27:53.328Z,4.50
2019-02-22T05:32:05.862Z,4.40
2019-02-22T05:36:18.893Z,4.40
2019-02-22T05:40:31.392Z,4.50
2019-02-22T05:44:43.860Z,4.60
2019-02-22T05:48:56.661Z,4.70
2019-02-22T05:53:09.161Z,4.70
2019-02-22T05:57:21.561Z,4.70
2019-02-22T06:01:34.456Z,4.80
2019-02-22T06:05:46.909Z,4.80
2019-02-22T06:10:00.454Z,4.80
2019-02-22T06:14:12.871Z,4.70
2019-02-22T06:18:25.345Z,4.80
2019-02-22T06:22:38.072Z,4.70
2019-02-22T06:26:50.521Z,4.60
2019-02-22T06:31:03.128Z,4.50
2019-02-22T06:35:15.941Z,4.50
2019-02-22T06:39:28.380Z,4.50
2019-02-22T06:43:40.694Z,4.50
2019-02-22T06:47:53.545Z,4.60
2019-02-22T06:52:05.941Z,4.50
2019-02-22T06:56:18.241Z,4.40
2019-02-22T07:00:31.135Z,4.40
2019-02-22T07:04:43.702Z,4.50
2019-02-22T07:08:57.340Z,4.70
2019-02-22T07:13:09.788Z,4.60
2019-02-22T07:17:22.640Z,4.60
2019-02-22T07:21:49.156Z,4.50
2019-02-22T07:25:49.152Z,4.50
2019-02-22T07:30:01.946Z,4.40
2019-02-22T07:34:14.530Z,4.40
2019-02-22T07:38:27.451Z,4.50
2019-02-22T07:42:39.947Z,4.70
2019-02-22T07:46:52.253Z,4.70
2019-02-22T07:51:05.222Z,4.80
2019-02-22T07:55:17.812Z,4.90
2019-02-22T07:59:30.223Z,5.00
2019-02-22T08:03:42.632Z,5.10
2019-02-22T08:07:55.425Z,5.40
2019-02-22T08:12:07.881Z,5.70
2019-02-22T08:16:20.188Z,6.00
2019-02-22T08:20:33.078Z,6.40
2019-02-22T08:24:45.609Z,6.70
2019-02-22T08:28:57.852Z,6.80
2019-02-22T08:33:10.880Z,6.90
2019-02-22T08:37:23.890Z,7.10
2019-02-22T08:41:36.637Z,7.30
2019-02-22T08:45:49.156Z,7.60
2019-02-22T08:50:02.039Z,7.80
2019-02-22T08:54:14.566Z,7.90
2019-02-22T08:58:26.912Z,8.10
2019-02-22T09:02:39.696Z,8.30
2019-02-22T09:06:52.498Z,8.50
2019-02-22T09:11:05.350Z,8.60
2019-02-22T09:15:17.798Z,8.70
2019-02-22T09:19:30.795Z,8.80
2019-02-22T09:23:43.364Z,9.00
2019-02-22T09:27:55.821Z,9.10
2019-02-22T09:32:08.667Z,9.20
2019-02-22T09:36:21.166Z,9.40
2019-02-22T09:40:33.988Z,9.60
2019-02-22T09:44:46.548Z,9.80
2019-02-22T09:48:59.557Z,10.00
2019-02-22T09:53:12.106Z,10.30
2019-02-22T09:57:24.591Z,10.50
2019-02-22T10:01:37.428Z,10.80
2019-02-22T10:05:49.961Z,10.90
2019-02-22T10:10:02.957Z,11.20
2019-02-22T10:14:17.769Z,11.20
2019-02-22T10:18:32.601Z,11.40
2019-02-22T10:22:48.282Z,11.40
2019-02-22T10:27:01.058Z,11.50
2019-02-22T10:31:16.242Z,11.60
2019-02-22T10:35:31.528Z,11.70
2019-02-22T10:39:46.255Z,11.80
2019-02-22T10:43:58.808Z,11.80
2019-02-22T10:48:11.112Z,11.80
2019-02-22T10:52:23.901Z,11.90
2019-02-22T10:56:38.976Z,12.00
2019-02-22T11:00:50.371Z,12.20
2019-02-22T11:05:02.615Z,12.30
2019-02-22T11:09:16.115Z,12.50
2019-02-22T11:13:28.849Z,12.40
2019-02-22T11:17:41.310Z,12.50
2019-02-22T11:21:54.288Z,12.50
2019-02-22T11:26:06.848Z,12.60
2019-02-22T11:30:19.253Z,12.50
2019-02-22T11:34:32.281Z,12.40
2019-02-22T11:38:44.886Z,12.40
2019-02-22T11:42:57.229Z,12.50
2019-02-22T11:47:10.034Z,12.60
2019-02-22T11:51:22.471Z,12.70
2019-02-22T11:55:34.885Z,12.90
2019-02-22T11:59:48.061Z,13.00
2019-02-22T12:04:00.501Z,12.90
2019-02-22T12:08:13.324Z,13.00
2019-02-22T12:12:25.777Z,12.90
2019-02-22T12:16:38.188Z,12.80
2019-02-22T12:20:51.080Z,12.70
2019-02-22T12:25:03.542Z,12.80
2019-02-22T12:29:16.515Z,12.90
2019-02-22T12:33:29.067Z,12.90
2019-02-22T12:37:41.558Z,12.90
2019-02-22T12:41:54.493Z,12.90
2019-02-22T12:46:06.932Z,13.00
2019-02-22T12:50:19.832Z,13.10
2019-02-22T12:54:32.392Z,13.10
2019-02-22T12:58:44.806Z,12.90
2019-02-22T13:03:01.852Z,13.00
2019-02-22T13:07:11.853Z,13.30
2019-02-22T13:11:24.677Z,13.50
2019-02-22T13:15:37.228Z,13.50
2019-02-22T13:19:49.658Z,13.60
2019-02-22T13:24:02.536Z,13.50
2019-02-22T13:28:14.994Z,13.60
2019-02-22T13:32:28.044Z,13.90
2019-02-22T13:36:40.820Z,13.80
2019-02-22T13:40:54.374Z,13.70
2019-02-22T13:45:07.124Z,13.60
2019-02-22T13:49:19.842Z,13.60
2019-02-22T13:53:32.244Z,13.60
2019-02-22T13:57:44.656Z,13.60
2019-02-22T14:01:57.992Z,13.80
2019-02-22T14:06:10.309Z,13.60
2019-02-22T14:10:23.714Z,13.50
2019-02-22T14:14:36.068Z,13.40
2019-02-22T14:18:48.848Z,13.40
2019-02-22T14:23:03.510Z,13.40
2019-02-22T14:27:15.160Z,13.40
2019-02-22T14:31:28.045Z,13.30
2019-02-22T14:35:41.360Z,13.40
2019-02-22T14:40:03.183Z,13.40
2019-02-22T14:44:08.560Z,13.30
2019-02-22T14:48:21.030Z,13.30
2019-02-22T14:52:34.013Z,13.30
2019-02-22T14:56:46.573Z,13.30
2019-02-22T15:00:59.080Z,13.30
2019-02-22T15:05:11.978Z,13.40
2019-02-22T15:09:24.436Z,13.30
2019-02-22T15:13:37.047Z,13.20
2019-02-22T15:17:53.067Z,13.10
2019-02-22T15:22:05.461Z,13.20
2019-02-22T15:26:17.875Z,13.20
2019-02-22T15:30:30.822Z,13.10
2019-02-22T15:34:43.336Z,13.20
2019-02-22T15:38:56.291Z,13.30
2019-02-22T15:43:08.983Z,13.40
2019-02-22T15:47:21.335Z,13.50
2019-02-22T15:51:37.835Z,13.60
2019-02-22T15:55:51.244Z,13.60
2019-02-22T16:00:04.233Z,13.70
2019-02-22T16:04:35.737Z,13.70
2019-02-22T16:08:48.625Z,13.70
2019-02-22T16:13:01.072Z,13.60
2019-02-22T16:17:13.447Z,13.70
2019-02-22T16:21:26.073Z,13.60
2019-02-22T16:25:38.535Z,13.60
2019-02-22T16:29:51.527Z,13.50
2019-02-22T16:34:04.076Z,13.50
2019-02-22T16:38:16.493Z,13.50
2019-02-22T16:42:29.440Z,13.40
2019-02-22T16:46:43.251Z,13.30
2019-02-22T16:50:56.924Z,13.30
2019-02-22T16:55:11.302Z,13.30
2019-02-22T16:59:24.037Z,13.30
2019-02-22T17:03:36.755Z,13.20
2019-02-22T17:07:49.504Z,13.20
2019-02-22T17:12:06.372Z,13.10
2019-02-22T17:16:16.618Z,13.00
2019-02-22T17:20:30.504Z,12.90
2019-02-22T17:24:42.991Z,12.80
2019-02-22T17:28:55.979Z,12.80
2019-02-22T17:33:08.541Z,12.70
2019-02-22T17:37:20.951Z,12.70
2019-02-22T17:41:34.009Z,12.60
2019-02-22T17:45:49.655Z,12.60
2019-02-22T17:50:02.833Z,12.50
2019-02-22T17:54:15.328Z,12.40
2019-02-22T17:58:27.745Z,12.30
2019-02-22T18:02:40.533Z,12.10
2019-02-22T18:06:53.001Z,11.80
2019-02-22T18:11:05.977Z,11.60
2019-02-22T18:15:18.535Z,11.40
2019-02-22T18:19:31.971Z,11.30
2019-02-22T18:23:44.488Z,11.10
2019-02-22T18:27:56.806Z,11.00
2019-02-22T18:32:09.588Z,10.90
2019-02-22T18:36:22.174Z,10.80
2019-02-22T18:40:35.305Z,10.80
2019-02-22T18:44:48.028Z,10.70
2019-02-22T18:49:00.887Z,10.60
2019-02-22T18:53:13.414Z,10.50
2019-02-22T18:57:25.763Z,10.40
2019-02-22T19:01:40.334Z,10.30
2019-02-22T19:05:53.354Z,10.20
2019-02-22T19:10:06.557Z,10.10
2019-02-22T19:14:19.114Z,10.00
2019-02-22T19:18:31.520Z,9.90
2019-02-22T19:22:44.490Z,9.90
2019-02-22T19:26:57.071Z,9.80
2019-02-22T19:31:09.381Z,9.80
2019-02-22T19:35:22.173Z,9.70
2019-02-22T19:39:34.749Z,9.60
2019-02-22T19:43:47.201Z,9.50
2019-02-22T19:47:59.969Z,9.50
2019-02-22T19:52:12.480Z,9.50
2019-02-22T19:56:25.437Z,9.40
2019-02-22T20:00:37.948Z,9.40
2019-02-22T20:04:50.344Z,9.30
2019-02-22T20:09:03.337Z,9.30
2019-02-22T20:13:15.902Z,9.30
2019-02-22T20:17:28.308Z,9.20
2019-02-22T20:21:41.095Z,9.20
2019-02-22T20:25:53.825Z,9.20
2019-02-22T20:30:06.751Z,9.10
2019-02-22T20:34:19.201Z,9.10
2019-02-22T20:38:31.633Z,9.10
2019-02-22T20:42:44.573Z,9.10
2019-02-22T20:46:57.061Z,9.10
2019-02-22T20:51:09.475Z,9.10
2019-02-22T20:55:22.265Z,9.10
2019-02-22T20:59:34.789Z,9.00
2019-02-22T21:03:47.608Z,9.10
2019-02-22T21:08:00.174Z,9.20
2019-02-22T21:12:13.159Z,9.10
2019-02-22T21:16:25.712Z,9.10
2019-02-22T21:20:40.445Z,9.20
2019-02-22T21:24:53.008Z,9.20
2019-02-22T21:29:06.068Z,9.10
2019-02-22T21:33:18.648Z,9.00
2019-02-22T21:37:31.099Z,9.10
2019-02-22T21:41:44.436Z,9.20
2019-02-22T21:45:56.889Z,9.30
2019-02-22T21:50:11.518Z,9.40
2019-02-22T21:54:23.904Z,9.60
2019-02-22T21:58:36.789Z,9.80
2019-02-22T22:02:49.320Z,10.20
2019-02-22T22:07:01.668Z,10.40
2019-02-22T22:11:15.099Z,10.70
2019-02-22T22:15:27.415Z,10.90
2019-02-22T22:19:40.324Z,11.20
2019-02-22T22:23:52.767Z,11.50
2019-02-22T22:28:05.236Z,11.60
2019-02-22T22:32:18.025Z,11.60
2019-02-22T22:36:30.524Z,11.70
2019-02-22T22:40:43.619Z,11.70
2019-02-22T22:44:56.225Z,11.60
2019-02-22T22:49:09.061Z,11.60
2019-02-22T22:53:21.623Z,11.50
2019-02-22T22:57:33.931Z,11.50
2019-02-22T23:01:47.026Z,11.40
2019-02-22T23:05:59.537Z,11.30
2019-02-22T23:10:12.367Z,11.10
2019-02-22T23:14:26.376Z,11.10
2019-02-22T23:18:38.947Z,11.00
2019-02-22T23:22:51.656Z,10.80
2019-02-22T23:27:04.112Z,10.70
2019-02-22T23:31:16.519Z,10.50
2019-02-22T23:35:29.482Z,10.30
2019-02-22T23:39:42.039Z,10.10
2019-02-22T23:43:55.037Z,10.10
2019-02-22T23:48:07.535Z,9.90
2019-02-22T23:52:20.628Z,9.80
2019-02-22T23:56:32.966Z,9.70
